Terminal Aerodrome Forecast
Issued by NWS Mt. Holly, NJ

Home | Current Version | Previous Version | Text Only | Print | Product List | Glossary On
Versions: 1 2 3 4 5 6 7 8 9 10 11 12 13 14
306
FTUS41 KPHI 260727 AAB
TAFTTN
TAF AMD
KTTN 260727Z 2607/2706 VRB03KT P6SM OVC005
     FM261300 07005KT P6SM BKN015
     FM261600 08007KT P6SM SKC
     FM262100 11006KT P6SM SKC
     FM270200 VRB03KT P6SM SKC=

USA.gov is the U.S. government's official web portal to all federal, state and local government web resources and services.